createdAt,value
2018-06-28T00:00:26.409Z,72.9
2018-06-28T00:01:27.070Z,72.9
2018-06-28T00:02:27.734Z,72.8
2018-06-28T00:03:28.433Z,72.5
2018-06-28T00:04:29.094Z,72.7
2018-06-28T00:05:29.755Z,72.4
2018-06-28T00:06:30.416Z,72.6
2018-06-28T00:07:31.076Z,72.1
2018-06-28T00:08:31.738Z,72.4
2018-06-28T00:09:32.400Z,72.4
2018-06-28T00:10:33.062Z,72.8
2018-06-28T00:11:33.721Z,72.4
2018-06-28T00:12:34.383Z,72.3
2018-06-28T00:13:35.042Z,72.3
2018-06-28T00:14:35.705Z,72.2
2018-06-28T00:15:36.407Z,72.5
2018-06-28T00:16:37.114Z,72.5
2018-06-28T00:17:37.728Z,72.1
2018-06-28T00:18:38.390Z,72.2
2018-06-28T00:19:39.050Z,72.4
2018-06-28T00:20:39.713Z,72.4
2018-06-28T00:21:40.375Z,72.5
2018-06-28T00:22:41.035Z,72.4
2018-06-28T00:23:41.695Z,72.4
2018-06-28T00:24:42.359Z,72.7
2018-06-28T00:25:43.018Z,72.8
2018-06-28T00:26:43.677Z,72.8
2018-06-28T00:27:44.339Z,72.9
2018-06-28T00:28:44.999Z,72.7
2018-06-28T00:29:45.659Z,73.0
2018-06-28T00:30:46.321Z,73.2
2018-06-28T00:31:46.981Z,72.8
2018-06-28T00:32:47.682Z,73.0
2018-06-28T00:33:48.345Z,73.1
2018-06-28T00:34:49.008Z,72.9
2018-06-28T00:35:49.668Z,73.1
2018-06-28T00:36:50.328Z,72.9
2018-06-28T00:37:50.989Z,72.8
2018-06-28T00:38:51.650Z,73.0
2018-06-28T00:39:52.310Z,73.3
2018-06-28T00:40:52.972Z,73.2
2018-06-28T00:41:53.633Z,73.2
2018-06-28T00:42:54.294Z,73.2
2018-06-28T00:43:54.956Z,73.2
2018-06-28T00:44:55.617Z,73.3
2018-06-28T00:45:56.276Z,72.9
2018-06-28T00:46:56.937Z,73.2
2018-06-28T00:47:57.601Z,73.5
2018-06-28T00:48:58.260Z,73.8
2018-06-28T00:49:58.920Z,73.8
2018-06-28T00:50:59.581Z,73.5
2018-06-28T00:52:00.240Z,73.9
2018-06-28T00:53:00.901Z,73.2
2018-06-28T00:54:01.566Z,73.4
2018-06-28T00:55:02.227Z,73.6
2018-06-28T00:56:02.926Z,74.1
2018-06-28T00:57:03.589Z,73.3
2018-06-28T00:58:04.248Z,73.4
2018-06-28T00:59:04.908Z,73.7
2018-06-28T01:00:05.571Z,73.7
2018-06-28T01:01:06.233Z,73.3
2018-06-28T01:02:06.893Z,73.8
2018-06-28T01:03:07.553Z,73.9
2018-06-28T01:04:08.214Z,73.9
2018-06-28T01:05:08.875Z,73.9
2018-06-28T01:06:09.536Z,73.8
2018-06-28T01:07:10.198Z,74.2
2018-06-28T01:08:10.857Z,73.8
2018-06-28T01:09:11.519Z,73.6
2018-06-28T01:10:12.221Z,73.8
2018-06-28T01:11:12.876Z,74.0
2018-06-28T01:12:13.578Z,74.0
2018-06-28T01:13:14.239Z,74.3
2018-06-28T01:14:14.897Z,74.2
2018-06-28T01:15:15.559Z,74.4
2018-06-28T01:16:16.228Z,74.5
2018-06-28T01:17:16.890Z,74.7
2018-06-28T01:18:17.550Z,74.6
2018-06-28T01:19:18.252Z,74.5
2018-06-28T01:20:18.913Z,74.1
2018-06-28T01:21:19.575Z,74.5
2018-06-28T01:22:20.233Z,74.8
2018-06-28T01:23:20.894Z,74.7
2018-06-28T01:24:21.557Z,74.7
2018-06-28T01:25:22.216Z,74.5
2018-06-28T01:26:22.919Z,74.6
2018-06-28T01:27:23.579Z,75.1
2018-06-28T01:28:24.240Z,75.3
2018-06-28T01:29:24.900Z,75.1
2018-06-28T01:30:25.606Z,75.0
2018-06-28T01:31:26.301Z,75.4
2018-06-28T01:32:26.963Z,75.0
2018-06-28T01:33:27.624Z,75.6
2018-06-28T01:34:28.282Z,75.7
2018-06-28T01:35:28.943Z,75.4
2018-06-28T01:36:29.601Z,76.3
2018-06-28T01:37:30.262Z,75.8
2018-06-28T01:38:30.924Z,76.3
2018-06-28T01:39:31.585Z,76.0
2018-06-28T01:40:32.243Z,76.8
2018-06-28T01:41:32.904Z,76.8
2018-06-28T01:42:33.564Z,76.5
2018-06-28T01:43:34.224Z,76.6
2018-06-28T01:44:34.886Z,76.8
2018-06-28T01:45:35.544Z,76.9
2018-06-28T01:46:36.211Z,76.9
2018-06-28T01:47:36.907Z,77.4
2018-06-28T01:48:37.565Z,76.7
2018-06-28T01:49:38.228Z,76.9
2018-06-28T01:50:38.904Z,77.0
2018-06-28T01:51:39.549Z,76.8
2018-06-28T01:52:40.207Z,76.9
2018-06-28T01:53:40.868Z,76.8
2018-06-28T01:54:41.527Z,76.9
2018-06-28T01:55:42.189Z,76.8
2018-06-28T01:56:42.849Z,77.0
2018-06-28T01:57:43.510Z,77.9
2018-06-28T01:58:44.169Z,77.7
2018-06-28T01:59:44.831Z,77.5
2018-06-28T02:00:45.490Z,77.6
2018-06-28T02:01:46.151Z,77.9
2018-06-28T02:02:46.850Z,78.0
2018-06-28T02:03:47.509Z,77.7
2018-06-28T02:04:48.182Z,77.8
2018-06-28T02:05:48.868Z,77.8
2018-06-28T02:06:49.529Z,77.9
2018-06-28T02:07:50.189Z,77.7
2018-06-28T02:08:50.848Z,78.0
2018-06-28T02:09:51.509Z,78.4
2018-06-28T02:10:52.170Z,78.3
2018-06-28T02:11:52.830Z,78.5
2018-06-28T02:12:53.493Z,78.4
2018-06-28T02:13:54.151Z,78.2
2018-06-28T02:14:54.814Z,78.0
2018-06-28T02:15:55.471Z,78.3
2018-06-28T02:16:56.135Z,78.3
2018-06-28T02:17:56.790Z,78.1
2018-06-28T02:18:57.450Z,78.1
2018-06-28T02:19:58.111Z,78.1
2018-06-28T02:20:58.774Z,78.1
2018-06-28T02:21:59.433Z,78.1
2018-06-28T02:23:00.092Z,78.3
2018-06-28T02:24:00.752Z,78.1
2018-06-28T02:25:01.415Z,78.1
2018-06-28T02:26:02.073Z,78.1
2018-06-28T02:27:02.735Z,78.1
2018-06-28T02:28:03.397Z,78.0
2018-06-28T02:29:04.057Z,78.1
2018-06-28T02:30:04.718Z,78.1
2018-06-28T02:31:05.376Z,78.4
2018-06-28T02:32:06.040Z,78.1
2018-06-28T02:33:06.695Z,78.1
2018-06-28T02:34:07.398Z,78.1
2018-06-28T02:35:08.097Z,78.3
2018-06-28T02:36:08.756Z,78.2
2018-06-28T02:37:09.455Z,78.3
2018-06-28T02:38:10.116Z,78.5
2018-06-28T02:39:10.776Z,78.1
2018-06-28T02:40:11.438Z,78.0
2018-06-28T02:41:12.098Z,78.1
2018-06-28T02:42:12.759Z,78.3
2018-06-28T02:43:13.425Z,78.1
2018-06-28T02:44:14.083Z,78.5
2018-06-28T02:45:14.743Z,78.6
2018-06-28T02:46:15.406Z,78.4
2018-06-28T02:47:16.068Z,78.4
2018-06-28T02:48:16.726Z,78.7
2018-06-28T02:49:17.386Z,78.8
2018-06-28T02:50:18.048Z,78.6
2018-06-28T02:51:18.708Z,79.1
2018-06-28T02:52:19.372Z,78.9
2018-06-28T02:53:20.030Z,79.3
2018-06-28T02:54:20.693Z,79.1
2018-06-28T02:55:21.352Z,79.1
2018-06-28T02:56:22.013Z,79.2
2018-06-28T02:57:22.676Z,79.4
2018-06-28T02:58:23.340Z,79.4
2018-06-28T02:59:24.038Z,79.5
2018-06-28T03:00:24.701Z,79.2
2018-06-28T03:01:25.365Z,79.3
2018-06-28T03:02:26.029Z,79.0
2018-06-28T03:03:26.692Z,79.3
2018-06-28T03:04:27.353Z,79.5
2018-06-28T03:05:28.016Z,79.1
2018-06-28T03:06:28.715Z,79.4
2018-06-28T03:07:29.376Z,79.4
2018-06-28T03:08:30.039Z,79.4
2018-06-28T03:09:30.754Z,79.4
2018-06-28T03:10:31.455Z,79.4
2018-06-28T03:11:32.118Z,79.5
2018-06-28T03:12:32.781Z,79.8
2018-06-28T03:13:33.443Z,79.4
2018-06-28T03:14:34.104Z,79.8
2018-06-28T03:15:34.766Z,79.8
2018-06-28T03:16:35.429Z,79.6
2018-06-28T03:17:36.091Z,79.4
2018-06-28T03:18:36.754Z,79.4
2018-06-28T03:19:37.415Z,79.4
2018-06-28T03:20:38.080Z,79.6
2018-06-28T03:21:38.743Z,79.6
2018-06-28T03:22:39.407Z,79.7
2018-06-28T03:23:40.077Z,79.6
2018-06-28T03:24:40.776Z,79.7
2018-06-28T03:25:41.438Z,79.9
2018-06-28T03:26:42.099Z,80.0
2018-06-28T03:27:42.763Z,80.0
2018-06-28T03:28:43.426Z,80.0
2018-06-28T03:29:44.090Z,79.8
2018-06-28T03:30:44.789Z,79.8
2018-06-28T03:31:45.415Z,79.8
2018-06-28T03:32:46.080Z,80.0
2018-06-28T03:33:46.747Z,79.5
2018-06-28T03:34:47.409Z,79.6
2018-06-28T03:35:48.074Z,79.4
2018-06-28T03:36:48.735Z,79.7
2018-06-28T03:37:49.450Z,79.3
2018-06-28T03:38:50.059Z,79.2
2018-06-28T03:39:50.722Z,79.1
2018-06-28T03:40:51.385Z,79.3
2018-06-28T03:41:52.049Z,79.4
2018-06-28T03:42:52.751Z,79.3
2018-06-28T03:43:53.417Z,79.4
2018-06-28T03:44:54.118Z,79.3
2018-06-28T03:45:54.807Z,79.3
2018-06-28T03:46:55.450Z,79.4
2018-06-28T03:47:56.115Z,79.3
2018-06-28T03:48:56.782Z,79.3
2018-06-28T03:49:57.442Z,79.4
2018-06-28T03:50:58.105Z,79.4
2018-06-28T03:51:58.768Z,79.0
2018-06-28T03:52:59.431Z,79.4
2018-06-28T03:54:00.098Z,79.3
2018-06-28T03:55:00.762Z,79.5
2018-06-28T03:56:01.428Z,79.3
2018-06-28T03:57:02.166Z,79.2
2018-06-28T03:58:02.794Z,79.1
2018-06-28T03:59:03.458Z,78.9
2018-06-28T04:00:04.122Z,78.8
2018-06-28T04:01:04.830Z,78.9
2018-06-28T04:02:05.501Z,79.0
2018-06-28T04:03:06.163Z,78.5
2018-06-28T04:04:06.871Z,78.6
2018-06-28T04:05:07.530Z,78.6
2018-06-28T04:06:08.195Z,78.6
2018-06-28T04:07:08.897Z,78.6
2018-06-28T04:08:09.562Z,78.6
2018-06-28T04:09:10.229Z,78.3
2018-06-28T04:10:10.941Z,78.6
2018-06-28T04:11:11.605Z,78.2
2018-06-28T04:12:12.269Z,78.1
2018-06-28T04:13:12.936Z,78.1
2018-06-28T04:14:13.603Z,78.1
2018-06-28T04:15:14.262Z,78.3
2018-06-28T04:16:14.933Z,78.4
2018-06-28T04:17:15.631Z,77.9
2018-06-28T04:18:16.298Z,77.9
2018-06-28T04:19:16.964Z,77.9
2018-06-28T04:20:17.630Z,77.6
2018-06-28T04:21:18.296Z,77.5
2018-06-28T04:22:18.961Z,77.4
2018-06-28T04:23:19.625Z,77.2
2018-06-28T04:24:20.292Z,77.5
2018-06-28T04:25:20.958Z,77.7
2018-06-28T04:26:21.621Z,77.7
2018-06-28T04:27:22.323Z,77.4
2018-06-28T04:28:22.951Z,76.9
2018-06-28T04:29:23.615Z,76.9
2018-06-28T04:30:24.280Z,76.8
2018-06-28T04:31:24.942Z,76.9
2018-06-28T04:32:25.608Z,76.8
2018-06-28T04:33:26.272Z,76.8
2018-06-28T04:34:26.937Z,76.8
2018-06-28T04:35:27.601Z,76.8
2018-06-28T04:36:28.265Z,77.0
2018-06-28T04:37:28.929Z,76.9
2018-06-28T04:38:29.594Z,76.8
2018-06-28T04:39:30.261Z,77.1
2018-06-28T04:40:30.927Z,77.2
2018-06-28T04:41:31.595Z,77.0
2018-06-28T04:42:32.259Z,76.9
2018-06-28T04:43:32.925Z,76.6
2018-06-28T04:44:33.590Z,76.8
2018-06-28T04:45:34.298Z,76.0
2018-06-28T04:46:34.962Z,76.1
2018-06-28T04:47:35.627Z,76.0
2018-06-28T04:48:36.335Z,76.3
2018-06-28T04:49:36.997Z,75.4
2018-06-28T04:50:37.704Z,75.1
2018-06-28T04:51:38.371Z,75.4
2018-06-28T04:52:39.036Z,74.7
2018-06-28T04:53:39.702Z,74.7
2018-06-28T04:54:40.371Z,74.7
2018-06-28T04:55:41.074Z,74.2
2018-06-28T04:56:41.740Z,74.1
2018-06-28T04:57:42.406Z,73.5
2018-06-28T04:58:43.112Z,73.0
2018-06-28T04:59:43.780Z,73.0
2018-06-28T05:00:44.447Z,72.8
2018-06-28T05:01:45.114Z,72.6
2018-06-28T05:02:45.783Z,72.7
2018-06-28T05:03:46.449Z,72.8
2018-06-28T05:04:47.157Z,72.5
2018-06-28T05:05:47.825Z,71.9
2018-06-28T05:06:48.493Z,71.2
2018-06-28T05:07:49.160Z,70.7
2018-06-28T05:08:49.830Z,70.9
2018-06-28T05:09:50.497Z,70.7
2018-06-28T05:10:51.166Z,70.3
2018-06-28T05:11:51.833Z,70.3
2018-06-28T05:12:52.501Z,70.4
2018-06-28T05:13:53.170Z,70.1
2018-06-28T05:14:53.838Z,69.7
2018-06-28T05:15:54.555Z,69.6
2018-06-28T05:16:55.223Z,69.9
2018-06-28T05:17:55.890Z,69.7
2018-06-28T05:18:56.558Z,69.2
2018-06-28T05:19:57.231Z,69.6
2018-06-28T05:20:57.894Z,69.7
2018-06-28T05:21:58.561Z,69.6
2018-06-28T05:22:59.228Z,69.9
2018-06-28T05:23:59.894Z,70.3
2018-06-28T05:25:00.563Z,70.2
2018-06-28T05:26:01.229Z,70.2
2018-06-28T05:27:01.895Z,70.5
2018-06-28T05:28:02.561Z,70.2
2018-06-28T05:29:03.230Z,70.3
2018-06-28T05:30:03.895Z,70.2
2018-06-28T05:31:04.562Z,70.2
2018-06-28T05:32:05.267Z,70.2
2018-06-28T05:33:05.936Z,70.6
2018-06-28T05:34:06.643Z,70.6
2018-06-28T05:35:07.309Z,71.0
2018-06-28T05:36:07.975Z,71.2
2018-06-28T05:37:08.682Z,71.0
2018-06-28T05:38:09.349Z,71.1
2018-06-28T05:39:10.016Z,71.1
2018-06-28T05:40:10.681Z,71.3
2018-06-28T05:41:11.350Z,71.1
2018-06-28T05:42:12.019Z,71.0
2018-06-28T05:43:12.688Z,70.8
2018-06-28T05:44:13.394Z,70.1
2018-06-28T05:45:14.063Z,70.3
2018-06-28T05:46:14.732Z,70.2
2018-06-28T05:47:15.401Z,69.6
2018-06-28T05:48:16.073Z,69.6
2018-06-28T05:49:16.738Z,69.7
2018-06-28T05:50:17.408Z,69.8
2018-06-28T05:51:18.074Z,69.7
2018-06-28T05:52:18.782Z,70.1
2018-06-28T05:53:19.451Z,70.6
2018-06-28T05:54:20.122Z,70.9
2018-06-28T05:55:20.828Z,71.6
2018-06-28T05:56:21.496Z,70.9
2018-06-28T05:57:22.202Z,71.0
2018-06-28T05:58:22.901Z,70.9
2018-06-28T05:59:23.568Z,70.8
2018-06-28T06:00:24.235Z,71.4
2018-06-28T06:01:24.970Z,71.4
2018-06-28T06:02:25.569Z,71.4
2018-06-28T06:03:26.238Z,71.1
2018-06-28T06:04:26.945Z,71.0
2018-06-28T06:05:27.613Z,71.0
2018-06-28T06:06:28.282Z,70.4
2018-06-28T06:07:28.950Z,70.6
2018-06-28T06:08:29.619Z,70.4
2018-06-28T06:09:30.295Z,70.3
2018-06-28T06:10:30.959Z,70.0
2018-06-28T06:11:31.629Z,69.1
2018-06-28T06:12:32.299Z,67.9
2018-06-28T06:13:32.968Z,65.9
2018-06-28T06:14:33.639Z,63.7
2018-06-28T06:15:34.311Z,61.2
2018-06-28T06:16:34.996Z,58.7
2018-06-28T06:17:35.650Z,57.1
2018-06-28T06:18:36.320Z,55.4
2018-06-28T06:19:37.004Z,54.0
2018-06-28T06:20:37.689Z,52.1
2018-06-28T06:21:38.372Z,51.2
2018-06-28T06:22:39.054Z,50.3
2018-06-28T06:23:39.738Z,48.8
2018-06-28T06:24:40.421Z,46.7
2018-06-28T06:25:41.106Z,46.1
2018-06-28T06:26:41.790Z,44.4
2018-06-28T06:27:42.473Z,43.5
2018-06-28T06:28:43.157Z,42.7
2018-06-28T06:29:43.843Z,42.4
2018-06-28T06:30:44.528Z,42.0
2018-06-28T06:31:45.213Z,41.4
2018-06-28T06:32:45.900Z,40.7
2018-06-28T06:33:46.619Z,40.4
2018-06-28T06:34:47.270Z,40.2
2018-06-28T06:35:47.954Z,39.8
2018-06-28T06:36:48.715Z,39.4
2018-06-28T06:37:49.330Z,39.1
2018-06-28T06:38:50.053Z,38.4
2018-06-28T06:39:50.739Z,37.8
2018-06-28T06:40:51.424Z,37.5
2018-06-28T06:41:52.161Z,36.8
2018-06-28T06:42:52.849Z,36.4
2018-06-28T06:43:53.535Z,35.8
2018-06-28T06:44:54.222Z,35.4
2018-06-28T06:45:54.909Z,35.0
2018-06-28T06:46:55.597Z,34.8
2018-06-28T06:47:56.285Z,34.8
2018-06-28T06:48:56.974Z,34.4
2018-06-28T06:49:57.701Z,34.5
2018-06-28T06:50:58.389Z,34.2
2018-06-28T06:51:59.077Z,33.6
2018-06-28T06:52:59.764Z,33.3
2018-06-28T06:54:00.454Z,32.4
2018-06-28T06:55:01.146Z,32.1
2018-06-28T06:56:01.869Z,31.9
2018-06-28T06:57:02.556Z,31.5
2018-06-28T06:58:03.243Z,31.1
2018-06-28T06:59:03.933Z,30.8
2018-06-28T07:00:04.621Z,31.0
2018-06-28T07:01:05.349Z,31.3
2018-06-28T07:02:06.038Z,30.5
2018-06-28T07:03:06.728Z,30.0
2018-06-28T07:04:07.416Z,29.6
2018-06-28T07:05:08.105Z,28.9
2018-06-28T07:06:08.797Z,28.7
2018-06-28T07:07:09.483Z,28.4
2018-06-28T07:08:10.173Z,28.2
2018-06-28T07:09:10.861Z,28.3
2018-06-28T07:10:11.607Z,27.1
2018-06-28T07:11:12.239Z,26.5
2018-06-28T07:12:12.928Z,26.8
2018-06-28T07:13:13.618Z,26.2
2018-06-28T07:14:14.307Z,26.2
2018-06-28T07:15:14.997Z,26.3
2018-06-28T07:16:15.687Z,25.9
2018-06-28T07:17:16.375Z,25.7
2018-06-28T07:18:17.066Z,25.5
2018-06-28T07:19:17.759Z,25.4
2018-06-28T07:20:18.446Z,25.2
2018-06-28T07:21:19.135Z,25.0
2018-06-28T07:22:19.827Z,24.6
2018-06-28T07:23:20.517Z,24.8
2018-06-28T07:24:21.208Z,24.9
2018-06-28T07:25:21.899Z,24.9
2018-06-28T07:26:22.589Z,24.6
2018-06-28T07:27:23.279Z,24.5
2018-06-28T07:28:24.002Z,24.9
2018-06-28T07:29:24.661Z,25.6
2018-06-28T07:30:25.351Z,26.3
2018-06-28T07:31:26.042Z,26.0
2018-06-28T07:32:26.732Z,26.0
2018-06-28T07:33:27.421Z,26.2
2018-06-28T07:34:28.110Z,25.9
2018-06-28T07:35:28.800Z,25.5
2018-06-28T07:36:29.491Z,25.7
2018-06-28T07:37:30.180Z,25.3
2018-06-28T07:38:30.871Z,25.2
2018-06-28T07:39:31.561Z,24.9
2018-06-28T07:40:32.251Z,24.5
2018-06-28T07:41:32.942Z,25.1
2018-06-28T07:42:33.684Z,24.9
2018-06-28T07:43:34.373Z,24.9
2018-06-28T07:44:35.064Z,24.7
2018-06-28T07:45:35.755Z,24.3
2018-06-28T07:46:36.444Z,24.1
2018-06-28T07:47:37.137Z,23.8
2018-06-28T07:48:37.847Z,23.4
2018-06-28T07:49:38.538Z,23.2
2018-06-28T07:50:39.229Z,22.5
2018-06-28T07:51:39.918Z,22.5
2018-06-28T07:52:40.610Z,22.8
2018-06-28T07:53:41.304Z,23.2
2018-06-28T07:54:42.029Z,23.2
2018-06-28T07:55:42.721Z,22.7
2018-06-28T07:56:43.408Z,22.3
2018-06-28T07:57:44.136Z,22.3
2018-06-28T07:58:44.825Z,21.9
2018-06-28T07:59:45.515Z,21.8
2018-06-28T08:00:46.204Z,22.0
2018-06-28T08:01:46.892Z,22.0
2018-06-28T08:02:47.583Z,21.4
2018-06-28T08:03:48.270Z,22.6
2018-06-28T08:04:48.960Z,22.2
2018-06-28T08:05:49.649Z,22.4
2018-06-28T08:06:50.384Z,22.6
2018-06-28T08:07:51.110Z,22.8
2018-06-28T08:08:51.798Z,22.2
2018-06-28T08:09:52.486Z,22.6
2018-06-28T08:10:53.217Z,22.0
2018-06-28T08:11:53.906Z,22.5
2018-06-28T08:12:54.594Z,22.2
2018-06-28T08:13:55.285Z,22.8
2018-06-28T08:14:55.973Z,23.4
2018-06-28T08:15:56.663Z,23.0
2018-06-28T08:16:57.351Z,23.0
2018-06-28T08:17:58.042Z,22.8
2018-06-28T08:18:58.731Z,23.1
2018-06-28T08:19:59.421Z,22.9
2018-06-28T08:21:00.112Z,22.2
2018-06-28T08:22:00.799Z,21.9
2018-06-28T08:23:01.495Z,22.1
2018-06-28T08:24:02.176Z,22.1
2018-06-28T08:25:02.866Z,22.1
2018-06-28T08:26:03.556Z,21.5
2018-06-28T08:27:04.307Z,21.2
2018-06-28T08:28:04.934Z,21.5
2018-06-28T08:29:05.623Z,21.4
2018-06-28T08:30:06.311Z,21.4
2018-06-28T08:31:07.001Z,21.3
2018-06-28T08:32:07.691Z,21.5
2018-06-28T08:33:08.381Z,21.4
2018-06-28T08:34:09.069Z,20.9
2018-06-28T08:35:09.760Z,21.0
2018-06-28T08:36:10.460Z,21.1
2018-06-28T08:37:11.138Z,21.0
2018-06-28T08:38:11.825Z,21.0
2018-06-28T08:39:12.515Z,21.2
2018-06-28T08:40:13.204Z,20.4
2018-06-28T08:41:13.895Z,20.6
2018-06-28T08:42:14.583Z,20.1
2018-06-28T08:43:15.278Z,20.2
2018-06-28T08:44:15.961Z,20.0
2018-06-28T08:45:16.651Z,20.5
2018-06-28T08:46:17.379Z,20.9
2018-06-28T08:47:18.068Z,21.3
2018-06-28T08:48:18.756Z,21.4
2018-06-28T08:49:19.443Z,21.3
2018-06-28T08:50:20.172Z,21.3
2018-06-28T08:51:20.900Z,21.1
2018-06-28T08:52:21.589Z,20.7
2018-06-28T08:53:22.278Z,20.4
2018-06-28T08:54:22.965Z,20.1
2018-06-28T08:55:23.652Z,19.8
2018-06-28T08:56:24.341Z,19.4
2018-06-28T08:57:25.029Z,19.5
2018-06-28T08:58:25.718Z,19.4
2018-06-28T08:59:26.408Z,18.9
2018-06-28T09:00:27.134Z,19.0
2018-06-28T09:01:27.821Z,19.4
2018-06-28T09:02:28.512Z,19.5
2018-06-28T09:03:29.201Z,19.4
2018-06-28T09:04:29.889Z,19.9
2018-06-28T09:05:30.579Z,19.8
2018-06-28T09:06:31.268Z,20.3
2018-06-28T09:07:31.955Z,20.6
2018-06-28T09:08:32.643Z,20.6
2018-06-28T09:09:33.333Z,21.4
2018-06-28T09:10:34.021Z,21.7
2018-06-28T09:11:34.709Z,22.1
2018-06-28T09:12:35.400Z,23.1
2018-06-28T09:13:36.135Z,23.5
2018-06-28T09:14:36.823Z,24.1
2018-06-28T09:15:37.579Z,24.7
2018-06-28T09:16:38.232Z,24.6
2018-06-28T09:17:38.921Z,24.8
2018-06-28T09:18:39.609Z,25.2
2018-06-28T09:19:40.296Z,25.8
2018-06-28T09:20:40.984Z,26.0
2018-06-28T09:21:41.673Z,25.9
2018-06-28T09:22:42.448Z,26.5
2018-06-28T09:23:43.049Z,27.0
2018-06-28T09:24:43.738Z,27.6
2018-06-28T09:25:44.428Z,27.7
2018-06-28T09:26:45.113Z,28.2
2018-06-28T09:27:45.800Z,28.1
2018-06-28T09:28:46.539Z,28.2
2018-06-28T09:29:47.230Z,28.6
2018-06-28T09:30:47.955Z,28.4
2018-06-28T09:31:48.644Z,28.3
2018-06-28T09:32:49.330Z,28.4
2018-06-28T09:33:50.019Z,28.1
2018-06-28T09:34:50.706Z,27.3
2018-06-28T09:35:51.458Z,27.1
2018-06-28T09:36:52.081Z,27.3
2018-06-28T09:37:52.769Z,27.0
2018-06-28T09:38:53.454Z,26.7
2018-06-28T09:39:54.143Z,25.9
2018-06-28T09:40:54.829Z,25.8
2018-06-28T09:41:55.516Z,25.8
2018-06-28T09:42:56.204Z,25.7
2018-06-28T09:43:56.893Z,25.7
2018-06-28T09:44:57.579Z,25.7
2018-06-28T09:45:58.266Z,25.8
2018-06-28T09:46:58.993Z,25.4
2018-06-28T09:47:59.680Z,24.9
2018-06-28T09:49:00.367Z,24.6
2018-06-28T09:50:01.054Z,24.5
2018-06-28T09:51:01.739Z,24.2
2018-06-28T09:52:02.429Z,23.8
2018-06-28T09:53:03.117Z,24.0
2018-06-28T09:54:03.807Z,24.1
2018-06-28T09:55:04.493Z,23.7
2018-06-28T09:56:05.180Z,23.5
2018-06-28T09:57:05.871Z,23.5
2018-06-28T09:58:06.601Z,23.0
2018-06-28T09:59:07.321Z,23.2
2018-06-28T10:00:08.009Z,23.3
2018-06-28T10:01:08.696Z,23.2
2018-06-28T10:02:09.382Z,23.7
2018-06-28T10:03:10.070Z,23.3
2018-06-28T10:04:10.797Z,23.3
2018-06-28T10:05:11.485Z,23.9
2018-06-28T10:06:12.173Z,24.2
2018-06-28T10:07:12.859Z,24.0
2018-06-28T10:08:13.546Z,23.8
2018-06-28T10:09:14.235Z,23.9
2018-06-28T10:10:14.919Z,24.2
2018-06-28T10:11:15.606Z,24.3
2018-06-28T10:12:16.297Z,24.4
2018-06-28T10:13:17.042Z,24.7
2018-06-28T10:14:17.665Z,23.9
2018-06-28T10:15:18.350Z,24.4
2018-06-28T10:16:19.038Z,24.7
2018-06-28T10:17:19.727Z,25.0
2018-06-28T10:18:20.411Z,25.8
2018-06-28T10:19:21.096Z,25.9
2018-06-28T10:20:21.784Z,25.7
2018-06-28T10:21:22.476Z,25.3
2018-06-28T10:22:23.156Z,25.5
2018-06-28T10:23:23.841Z,25.5
2018-06-28T10:24:24.529Z,25.4
2018-06-28T10:25:25.219Z,25.5
2018-06-28T10:26:25.901Z,25.7
2018-06-28T10:27:26.586Z,25.6
2018-06-28T10:28:27.277Z,25.6
2018-06-28T10:29:27.959Z,25.7
2018-06-28T10:30:28.646Z,25.9
2018-06-28T10:31:29.333Z,25.6
2018-06-28T10:32:30.018Z,25.5
2018-06-28T10:33:30.702Z,25.4
2018-06-28T10:34:31.389Z,25.8
2018-06-28T10:35:32.077Z,25.9
2018-06-28T10:36:32.759Z,26.3
2018-06-28T10:37:33.447Z,26.8
2018-06-28T10:38:34.132Z,26.8
2018-06-28T10:39:34.819Z,26.8
2018-06-28T10:40:35.503Z,27.2
2018-06-28T10:41:36.190Z,27.0
2018-06-28T10:42:36.877Z,27.0
2018-06-28T10:43:37.562Z,27.5
2018-06-28T10:44:38.247Z,27.9
2018-06-28T10:45:38.934Z,28.4
2018-06-28T10:46:39.620Z,29.2
2018-06-28T10:47:40.308Z,29.4
2018-06-28T10:48:41.030Z,29.9
2018-06-28T10:49:41.716Z,30.2
2018-06-28T10:50:42.403Z,30.6
2018-06-28T10:51:43.087Z,30.4
2018-06-28T10:52:43.773Z,30.4
2018-06-28T10:53:44.460Z,30.7
2018-06-28T10:54:45.144Z,30.6
2018-06-28T10:55:45.868Z,30.6
2018-06-28T10:56:46.562Z,31.2
2018-06-28T10:57:47.332Z,31.1
2018-06-28T10:58:47.966Z,31.3
2018-06-28T10:59:48.653Z,31.7
2018-06-28T11:00:49.338Z,31.5
2018-06-28T11:01:50.043Z,31.4
2018-06-28T11:02:50.744Z,31.6
2018-06-28T11:03:51.424Z,31.8
2018-06-28T11:04:52.110Z,31.6
2018-06-28T11:05:52.795Z,31.5
2018-06-28T11:06:53.480Z,31.6
2018-06-28T11:07:54.164Z,31.3
2018-06-28T11:08:54.851Z,31.8
2018-06-28T11:09:55.559Z,31.8
2018-06-28T11:10:56.219Z,31.8
2018-06-28T11:11:56.903Z,31.8
2018-06-28T11:12:57.588Z,31.8
2018-06-28T11:13:58.274Z,32.2
2018-06-28T11:14:58.959Z,32.2
2018-06-28T11:15:59.645Z,31.9
2018-06-28T11:17:00.332Z,31.9
2018-06-28T11:18:01.018Z,32.0
2018-06-28T11:19:01.703Z,31.8
2018-06-28T11:20:02.437Z,31.8
2018-06-28T11:21:03.123Z,32.4
2018-06-28T11:22:03.806Z,32.1
2018-06-28T11:23:04.491Z,33.0
2018-06-28T11:24:05.175Z,33.3
2018-06-28T11:25:05.891Z,32.6
2018-06-28T11:26:06.544Z,33.1
2018-06-28T11:27:07.269Z,33.1
2018-06-28T11:28:07.953Z,33.5
2018-06-28T11:29:08.638Z,33.4
2018-06-28T11:30:09.370Z,33.4
2018-06-28T11:31:10.092Z,33.5
2018-06-28T11:32:10.778Z,33.7
2018-06-28T11:33:11.462Z,33.6
2018-06-28T11:34:12.240Z,33.4
2018-06-28T11:35:12.831Z,33.5
2018-06-28T11:36:13.525Z,33.5
2018-06-28T11:37:14.239Z,33.4
2018-06-28T11:38:14.924Z,33.4
2018-06-28T11:39:15.608Z,33.0
2018-06-28T11:40:16.292Z,33.1
2018-06-28T11:41:16.978Z,32.4
2018-06-28T11:42:17.699Z,32.1
2018-06-28T11:43:18.384Z,32.3
2018-06-28T11:44:19.069Z,32.8
2018-06-28T11:45:19.752Z,32.4
2018-06-28T11:46:20.440Z,32.4
2018-06-28T11:47:21.122Z,32.4
2018-06-28T11:48:21.805Z,32.3
2018-06-28T11:49:22.489Z,32.2
2018-06-28T11:50:23.174Z,32.3
2018-06-28T11:51:23.858Z,32.0
2018-06-28T11:52:24.625Z,32.1
2018-06-28T11:53:25.225Z,32.1
2018-06-28T11:54:25.948Z,32.3
2018-06-28T11:55:26.632Z,32.5
2018-06-28T11:56:27.317Z,32.6
2018-06-28T11:57:28.005Z,32.2
2018-06-28T11:58:28.727Z,32.3
2018-06-28T11:59:29.410Z,32.1
2018-06-28T12:00:30.096Z,32.1
2018-06-28T12:01:30.793Z,31.8
2018-06-28T12:02:31.506Z,31.9
2018-06-28T12:03:32.229Z,31.7
2018-06-28T12:04:32.914Z,31.6
2018-06-28T12:05:33.616Z,32.0
2018-06-28T12:06:34.288Z,31.9
2018-06-28T12:07:34.967Z,32.0
2018-06-28T12:08:35.651Z,32.0
2018-06-28T12:09:36.340Z,32.1
2018-06-28T12:10:37.025Z,31.9
2018-06-28T12:11:37.708Z,31.8
2018-06-28T12:12:38.392Z,31.8
2018-06-28T12:13:39.078Z,32.0
2018-06-28T12:14:39.762Z,31.8
2018-06-28T12:15:40.485Z,31.8
2018-06-28T12:16:41.170Z,31.8
2018-06-28T12:17:41.855Z,31.7
2018-06-28T12:18:42.538Z,31.7
2018-06-28T12:19:43.222Z,31.7
2018-06-28T12:20:43.905Z,32.0
2018-06-28T12:21:44.586Z,31.9
2018-06-28T12:22:45.272Z,32.1
2018-06-28T12:23:45.954Z,32.5
2018-06-28T12:24:46.639Z,32.5
2018-06-28T12:25:47.323Z,33.1
2018-06-28T12:26:48.008Z,33.1
2018-06-28T12:27:48.691Z,33.5
2018-06-28T12:28:49.378Z,34.0
2018-06-28T12:29:50.098Z,34.0
2018-06-28T12:30:50.831Z,33.9
2018-06-28T12:31:51.514Z,34.0
2018-06-28T12:32:52.200Z,34.2
2018-06-28T12:33:52.886Z,34.2
2018-06-28T12:34:53.571Z,34.4
2018-06-28T12:35:54.254Z,34.5
2018-06-28T12:36:54.946Z,34.3
2018-06-28T12:37:55.621Z,34.8
2018-06-28T12:38:56.306Z,34.8
2018-06-28T12:39:56.990Z,34.8
2018-06-28T12:40:57.679Z,35.1
2018-06-28T12:41:58.357Z,34.8
2018-06-28T12:42:59.080Z,35.1
2018-06-28T12:43:59.814Z,35.0
2018-06-28T12:45:00.480Z,34.3
2018-06-28T12:46:01.133Z,33.6
2018-06-28T12:47:01.816Z,33.6
2018-06-28T12:48:02.502Z,33.4
2018-06-28T12:49:03.185Z,33.9
2018-06-28T12:50:03.869Z,33.7
2018-06-28T12:51:04.552Z,33.1
2018-06-28T12:52:05.239Z,32.7
2018-06-28T12:53:05.921Z,33.3
2018-06-28T12:54:06.606Z,32.5
2018-06-28T12:55:07.289Z,32.4
2018-06-28T12:56:07.973Z,32.2
2018-06-28T12:57:08.656Z,31.9
2018-06-28T12:58:09.340Z,31.9
2018-06-28T12:59:10.023Z,31.5
2018-06-28T13:00:10.706Z,31.9
2018-06-28T13:01:11.391Z,32.0
2018-06-28T13:02:12.074Z,31.9
2018-06-28T13:03:12.757Z,31.9
2018-06-28T13:04:13.442Z,32.1
2018-06-28T13:05:14.123Z,32.4
2018-06-28T13:06:14.806Z,33.1
2018-06-28T13:07:15.538Z,33.0
2018-06-28T13:08:16.172Z,33.4
2018-06-28T13:09:16.855Z,33.8
2018-06-28T13:10:17.540Z,33.7
2018-06-28T13:11:18.224Z,34.0
2018-06-28T13:12:18.907Z,34.4
2018-06-28T13:13:19.589Z,34.6
2018-06-28T13:14:20.277Z,34.6
2018-06-28T13:15:20.956Z,34.6
2018-06-28T13:16:21.641Z,34.6
2018-06-28T13:17:22.324Z,34.9
2018-06-28T13:18:23.049Z,34.4
2018-06-28T13:19:23.732Z,34.4
2018-06-28T13:20:24.448Z,34.4
2018-06-28T13:21:25.099Z,34.5
2018-06-28T13:22:25.783Z,34.7
2018-06-28T13:23:26.466Z,34.4
2018-06-28T13:24:27.151Z,33.6
2018-06-28T13:25:27.835Z,34.2
2018-06-28T13:26:28.518Z,33.7
2018-06-28T13:27:29.203Z,34.0